createdAt,value
2019-02-25T00:00:13.153Z,41.50
2019-02-25T00:01:13.140Z,41.71
2019-02-25T00:02:13.135Z,41.50
2019-02-25T00:03:13.119Z,41.18
2019-02-25T00:04:13.121Z,41.49
2019-02-25T00:05:13.101Z,41.79
2019-02-25T00:06:13.088Z,41.99
2019-02-25T00:07:13.073Z,41.30
2019-02-25T00:08:13.070Z,40.98
2019-02-25T00:09:13.079Z,41.49
2019-02-25T00:10:13.044Z,41.08
2019-02-25T00:11:13.036Z,41.28
2019-02-25T00:12:13.025Z,40.46
2019-02-25T00:13:13.017Z,40.58
2019-02-25T00:14:13.015Z,40.36
2019-02-25T00:15:12.993Z,40.16
2019-02-25T00:16:12.976Z,40.66
2019-02-25T00:17:12.968Z,40.05
2019-02-25T00:18:12.958Z,40.25
2019-02-25T00:19:12.965Z,39.85
2019-02-25T00:20:12.939Z,39.95
2019-02-25T00:21:12.924Z,39.95
2019-02-25T00:22:12.922Z,40.44
2019-02-25T00:23:12.904Z,40.03
2019-02-25T00:24:12.911Z,40.23
2019-02-25T00:25:12.886Z,40.44
2019-02-25T00:26:12.873Z,40.44
2019-02-25T00:27:12.865Z,40.54
2019-02-25T00:28:12.859Z,40.23
2019-02-25T00:29:12.867Z,40.34
2019-02-25T00:30:12.830Z,39.43
2019-02-25T00:31:12.822Z,39.73
2019-02-25T00:32:12.808Z,39.33
2019-02-25T00:33:12.797Z,39.63
2019-02-25T00:34:12.820Z,39.73
2019-02-25T00:35:12.779Z,39.73
2019-02-25T00:36:12.767Z,39.43
2019-02-25T00:37:12.749Z,38.52
2019-02-25T00:38:12.746Z,38.60
2019-02-25T00:39:12.754Z,39.33
2019-02-25T00:40:12.726Z,38.73
2019-02-25T00:41:12.713Z,39.13
2019-02-25T00:42:12.699Z,39.13
2019-02-25T00:43:12.697Z,39.11
2019-02-25T00:44:12.678Z,38.60
2019-02-25T00:45:12.683Z,38.71
2019-02-25T00:46:12.661Z,39.01
2019-02-25T00:47:12.649Z,39.21
2019-02-25T00:48:12.641Z,38.81
2019-02-25T00:49:12.630Z,39.01
2019-02-25T00:50:12.630Z,39.21
2019-02-25T00:51:12.607Z,39.11
2019-02-25T00:52:12.599Z,38.91
2019-02-25T00:53:12.581Z,39.01
2019-02-25T00:54:12.573Z,39.11
2019-02-25T00:55:12.585Z,39.01
2019-02-25T00:56:12.552Z,39.01
2019-02-25T00:57:12.545Z,38.91
2019-02-25T00:58:12.534Z,39.21
2019-02-25T00:59:12.523Z,39.01
2019-02-25T01:00:12.535Z,38.71
2019-02-25T01:01:12.500Z,38.30
2019-02-25T01:02:12.494Z,38.91
2019-02-25T01:03:12.483Z,38.40
2019-02-25T01:04:12.470Z,38.60
2019-02-25T01:05:12.494Z,38.91
2019-02-25T01:06:12.444Z,38.91
2019-02-25T01:07:12.452Z,39.21
2019-02-25T01:08:12.427Z,39.21
2019-02-25T01:09:12.419Z,38.10
2019-02-25T01:10:12.433Z,39.09
2019-02-25T01:11:12.395Z,38.39
2019-02-25T01:12:12.387Z,38.39
2019-02-25T01:13:12.377Z,37.98
2019-02-25T01:14:12.367Z,38.48
2019-02-25T01:15:12.366Z,38.08
2019-02-25T01:16:12.341Z,38.08
2019-02-25T01:17:12.337Z,38.18
2019-02-25T01:18:12.325Z,37.98
2019-02-25T01:19:12.312Z,37.88
2019-02-25T01:20:12.318Z,37.70
2019-02-25T01:21:12.287Z,38.18
2019-02-25T01:22:12.286Z,37.88
2019-02-25T01:23:12.278Z,37.68
2019-02-25T01:24:12.263Z,38.39
2019-02-25T01:25:12.262Z,38.18
2019-02-25T01:26:12.237Z,37.68
2019-02-25T01:27:12.233Z,37.48
2019-02-25T01:28:12.223Z,38.27
2019-02-25T01:29:12.219Z,37.85
2019-02-25T01:30:12.218Z,36.80
2019-02-25T01:31:12.187Z,36.27
2019-02-25T01:32:12.176Z,34.73
2019-02-25T01:33:12.171Z,34.09
2019-02-25T01:34:12.159Z,33.67
2019-02-25T01:35:12.162Z,33.24
2019-02-25T01:36:12.135Z,33.33
2019-02-25T01:37:12.132Z,32.23
2019-02-25T01:38:12.116Z,32.41
2019-02-25T01:39:12.106Z,31.49
2019-02-25T01:40:12.115Z,31.51
2019-02-25T01:41:12.081Z,32.01
2019-02-25T01:42:12.071Z,31.71
2019-02-25T01:43:12.070Z,31.61
2019-02-25T01:44:12.051Z,32.23
2019-02-25T01:45:12.055Z,32.44
2019-02-25T01:46:12.026Z,31.94
2019-02-25T01:47:12.020Z,32.15
2019-02-25T01:48:12.007Z,32.67
2019-02-25T01:49:12.000Z,33.28
2019-02-25T01:50:12.018Z,33.69
2019-02-25T01:51:11.977Z,34.09
2019-02-25T01:52:11.965Z,34.41
2019-02-25T01:53:11.951Z,34.41
2019-02-25T01:54:11.952Z,34.33
2019-02-25T01:55:11.961Z,34.44
2019-02-25T01:56:11.921Z,34.24
2019-02-25T01:57:11.917Z,34.54
2019-02-25T01:58:11.900Z,34.14
2019-02-25T01:59:11.888Z,35.06
2019-02-25T02:00:11.881Z,34.84
2019-02-25T02:01:11.896Z,34.66
2019-02-25T02:02:11.865Z,35.57
2019-02-25T02:03:11.852Z,35.18
2019-02-25T02:04:11.837Z,35.18
2019-02-25T02:05:11.829Z,35.48
2019-02-25T02:06:11.832Z,35.18
2019-02-25T02:07:11.801Z,35.48
2019-02-25T02:08:11.796Z,35.28
2019-02-25T02:09:11.790Z,35.18
2019-02-25T02:10:11.773Z,36.18
2019-02-25T02:11:11.774Z,35.30
2019-02-25T02:12:11.753Z,35.10
2019-02-25T02:13:14.468Z,36.20
2019-02-25T02:14:11.732Z,35.90
2019-02-25T02:15:11.727Z,36.00
2019-02-25T02:16:11.734Z,35.80
2019-02-25T02:17:11.697Z,35.50
2019-02-25T02:18:11.692Z,35.80
2019-02-25T02:19:11.678Z,35.80
2019-02-25T02:20:11.679Z,36.02
2019-02-25T02:21:11.673Z,36.50
2019-02-25T02:22:11.657Z,36.02
2019-02-25T02:23:11.637Z,35.82
2019-02-25T02:24:11.632Z,36.52
2019-02-25T02:25:11.615Z,36.32
2019-02-25T02:26:11.624Z,36.11
2019-02-25T02:27:11.595Z,36.10
2019-02-25T02:28:11.584Z,36.42
2019-02-25T02:29:11.572Z,36.32
2019-02-25T02:30:11.565Z,36.32
2019-02-25T02:31:11.581Z,36.42
2019-02-25T02:32:11.537Z,36.62
2019-02-25T02:33:11.530Z,36.42
2019-02-25T02:34:11.519Z,36.72
2019-02-25T02:35:11.508Z,36.74
2019-02-25T02:36:11.854Z,36.82
2019-02-25T02:37:11.492Z,36.44
2019-02-25T02:38:11.478Z,37.34
2019-02-25T02:39:11.467Z,37.45
2019-02-25T02:40:11.463Z,37.45
2019-02-25T02:41:11.463Z,36.94
2019-02-25T02:42:11.439Z,37.74
2019-02-25T02:43:11.428Z,37.54
2019-02-25T02:44:11.415Z,37.34
2019-02-25T02:45:11.420Z,36.74
2019-02-25T02:46:11.393Z,36.74
2019-02-25T02:47:11.381Z,37.76
2019-02-25T02:48:11.373Z,37.34
2019-02-25T02:49:11.359Z,37.45
2019-02-25T02:50:11.379Z,37.46
2019-02-25T02:51:11.337Z,37.46
2019-02-25T02:52:11.337Z,37.56
2019-02-25T02:53:11.319Z,37.56
2019-02-25T02:54:11.308Z,37.56
2019-02-25T02:55:11.365Z,38.07
2019-02-25T02:56:11.312Z,37.66
2019-02-25T02:57:11.278Z,37.56
2019-02-25T02:58:11.278Z,37.88
2019-02-25T02:59:11.263Z,37.87
2019-02-25T03:00:11.248Z,37.36
2019-02-25T03:01:11.259Z,37.76
2019-02-25T03:02:11.230Z,37.56
2019-02-25T03:03:11.215Z,37.58
2019-02-25T03:04:11.201Z,37.46
2019-02-25T03:05:11.195Z,37.46
2019-02-25T03:06:11.206Z,37.26
2019-02-25T03:07:11.172Z,36.98
2019-02-25T03:08:11.166Z,36.96
2019-02-25T03:09:11.148Z,36.76
2019-02-25T03:10:11.143Z,37.06
2019-02-25T03:11:11.148Z,36.96
2019-02-25T03:12:11.124Z,37.16
2019-02-25T03:13:11.105Z,36.86
2019-02-25T03:14:11.100Z,37.26
2019-02-25T03:15:11.092Z,36.35
2019-02-25T03:16:11.097Z,36.66
2019-02-25T03:17:11.064Z,37.06
2019-02-25T03:18:11.053Z,36.35
2019-02-25T03:19:11.042Z,36.76
2019-02-25T03:20:11.029Z,36.35
2019-02-25T03:21:11.043Z,36.55
2019-02-25T03:22:11.013Z,36.66
2019-02-25T03:23:10.997Z,36.55
2019-02-25T03:24:10.987Z,36.55
2019-02-25T03:25:10.976Z,36.44
2019-02-25T03:26:10.964Z,37.06
2019-02-25T03:27:10.980Z,36.46
2019-02-25T03:28:10.946Z,36.46
2019-02-25T03:29:10.934Z,36.25
2019-02-25T03:30:10.926Z,36.86
2019-02-25T03:31:10.924Z,36.55
2019-02-25T03:32:11.015Z,35.85
2019-02-25T03:33:10.892Z,36.84
2019-02-25T03:34:10.885Z,36.66
2019-02-25T03:35:10.871Z,35.63
2019-02-25T03:36:10.860Z,36.04
2019-02-25T03:37:10.864Z,36.33
2019-02-25T03:38:10.838Z,36.35
2019-02-25T03:39:10.833Z,36.55
2019-02-25T03:40:10.821Z,36.15
2019-02-25T03:41:10.810Z,36.66
2019-02-25T03:42:10.807Z,36.13
2019-02-25T03:43:10.847Z,36.64
2019-02-25T03:44:10.780Z,36.33
2019-02-25T03:45:10.763Z,36.44
2019-02-25T03:46:10.769Z,36.74
2019-02-25T03:47:10.759Z,36.13
2019-02-25T03:48:10.731Z,36.64
2019-02-25T03:49:10.723Z,36.04
2019-02-25T03:50:10.710Z,36.13
2019-02-25T03:51:10.690Z,36.04
2019-02-25T03:52:10.697Z,36.44
2019-02-25T03:53:10.678Z,36.33
2019-02-25T03:54:10.661Z,36.13
2019-02-25T03:55:10.653Z,36.64
2019-02-25T03:56:10.642Z,36.33
2019-02-25T03:57:10.639Z,36.54
2019-02-25T03:58:10.618Z,36.13
2019-02-25T03:59:10.606Z,36.64
2019-02-25T04:00:10.602Z,36.54
2019-02-25T04:01:10.583Z,36.44
2019-02-25T04:02:10.587Z,36.33
2019-02-25T04:03:10.559Z,36.74
2019-02-25T04:04:10.552Z,35.73
2019-02-25T04:05:10.543Z,36.64
2019-02-25T04:06:10.527Z,36.46
2019-02-25T04:07:10.537Z,36.35
2019-02-25T04:08:10.504Z,36.66
2019-02-25T04:09:10.503Z,37.26
2019-02-25T04:10:10.484Z,36.96
2019-02-25T04:11:10.472Z,36.86
2019-02-25T04:12:10.487Z,36.76
2019-02-25T04:13:10.457Z,37.36
2019-02-25T04:14:10.442Z,36.86
2019-02-25T04:15:10.431Z,37.96
2019-02-25T04:16:10.429Z,37.87
2019-02-25T04:17:10.528Z,37.96
2019-02-25T04:18:10.459Z,37.58
2019-02-25T04:19:10.388Z,37.56
2019-02-25T04:20:10.373Z,38.08
2019-02-25T04:21:10.427Z,37.78
2019-02-25T04:22:10.368Z,37.18
2019-02-25T04:23:10.347Z,37.58
2019-02-25T04:24:10.334Z,37.48
2019-02-25T04:25:10.324Z,37.48
2019-02-25T04:26:10.311Z,37.48
2019-02-25T04:27:10.321Z,37.88
2019-02-25T04:28:10.291Z,37.68
2019-02-25T04:29:10.285Z,37.88
2019-02-25T04:30:10.268Z,38.39
2019-02-25T04:31:10.262Z,37.88
2019-02-25T04:32:10.266Z,38.40
2019-02-25T04:33:10.238Z,38.39
2019-02-25T04:34:10.239Z,38.10
2019-02-25T04:35:10.217Z,38.40
2019-02-25T04:36:10.221Z,38.30
2019-02-25T04:37:10.217Z,37.49
2019-02-25T04:38:10.187Z,37.49
2019-02-25T04:39:10.173Z,37.60
2019-02-25T04:40:10.172Z,37.90
2019-02-25T04:41:10.160Z,37.70
2019-02-25T04:42:10.166Z,37.40
2019-02-25T04:43:10.138Z,37.48
2019-02-25T04:44:10.123Z,36.98
2019-02-25T04:45:10.114Z,37.18
2019-02-25T04:46:10.111Z,37.48
2019-02-25T04:47:10.107Z,36.35
2019-02-25T04:48:10.081Z,36.55
2019-02-25T04:49:10.076Z,36.25
2019-02-25T04:50:10.062Z,36.25
2019-02-25T04:51:10.059Z,36.46
2019-02-25T04:52:10.068Z,37.26
2019-02-25T04:53:10.030Z,37.16
2019-02-25T04:54:10.023Z,36.86
2019-02-25T04:55:10.014Z,37.26
2019-02-25T04:56:09.998Z,37.16
2019-02-25T04:57:10.010Z,37.56
2019-02-25T04:58:09.978Z,37.76
2019-02-25T04:59:09.967Z,37.46
2019-02-25T05:00:09.956Z,37.46
2019-02-25T05:01:09.948Z,38.07
2019-02-25T05:02:09.960Z,38.17
2019-02-25T05:03:09.933Z,38.27
2019-02-25T05:04:09.917Z,37.78
2019-02-25T05:05:09.914Z,38.87
2019-02-25T05:06:09.908Z,39.19
2019-02-25T05:07:09.901Z,37.98
2019-02-25T05:08:09.871Z,36.27
2019-02-25T05:09:09.863Z,35.46
2019-02-25T05:10:09.848Z,35.46
2019-02-25T05:11:09.839Z,36.87
2019-02-25T05:12:09.841Z,36.47
2019-02-25T05:13:09.824Z,36.37
2019-02-25T05:14:09.813Z,35.66
2019-02-25T05:15:09.798Z,36.67
2019-02-25T05:16:09.781Z,36.57
2019-02-25T05:17:09.786Z,36.49
2019-02-25T05:18:09.770Z,36.57
2019-02-25T05:19:09.751Z,36.87
2019-02-25T05:20:09.734Z,36.87
2019-02-25T05:21:09.725Z,36.47
2019-02-25T05:22:09.734Z,36.77
2019-02-25T05:23:09.702Z,36.37
2019-02-25T05:24:09.691Z,36.37
2019-02-25T05:25:09.684Z,37.07
2019-02-25T05:26:09.709Z,37.18
2019-02-25T05:27:09.681Z,36.98
2019-02-25T05:28:09.652Z,36.37
2019-02-25T05:29:09.639Z,36.57
2019-02-25T05:30:09.634Z,37.36
2019-02-25T05:31:09.615Z,37.16
2019-02-25T05:32:09.623Z,36.76
2019-02-25T05:33:09.595Z,37.46
2019-02-25T05:34:09.585Z,37.26
2019-02-25T05:35:09.569Z,37.48
2019-02-25T05:36:09.562Z,37.87
2019-02-25T05:37:09.562Z,38.17
2019-02-25T05:38:09.549Z,37.96
2019-02-25T05:39:09.545Z,37.46
2019-02-25T05:40:09.521Z,37.26
2019-02-25T05:41:09.505Z,37.76
2019-02-25T05:42:09.512Z,37.56
2019-02-25T05:43:09.485Z,37.66
2019-02-25T05:44:09.476Z,38.47
2019-02-25T05:45:09.473Z,38.07
2019-02-25T05:46:09.456Z,38.47
2019-02-25T05:47:09.454Z,38.57
2019-02-25T05:48:09.434Z,37.87
2019-02-25T05:49:09.423Z,38.27
2019-02-25T05:50:09.410Z,38.77
2019-02-25T05:51:09.404Z,38.87
2019-02-25T05:52:09.406Z,37.87
2019-02-25T05:53:09.389Z,39.07
2019-02-25T05:54:09.364Z,39.78
2019-02-25T05:55:09.368Z,38.87
2019-02-25T05:56:09.344Z,38.57
2019-02-25T05:57:09.348Z,40.18
2019-02-25T05:58:09.327Z,40.28
2019-02-25T05:59:09.311Z,40.08
2019-02-25T06:00:09.361Z,40.38
2019-02-25T06:01:09.297Z,40.58
2019-02-25T06:02:09.308Z,40.69
2019-02-25T06:03:09.282Z,42.01
2019-02-25T06:04:09.258Z,41.69
2019-02-25T06:05:09.255Z,42.10
2019-02-25T06:06:09.264Z,43.02
2019-02-25T06:07:10.488Z,42.72
2019-02-25T06:08:09.219Z,43.42
2019-02-25T06:09:09.207Z,44.02
2019-02-25T06:10:09.193Z,43.73
2019-02-25T06:11:09.195Z,43.82
2019-02-25T06:12:09.186Z,42.72
2019-02-25T06:13:09.165Z,43.52
2019-02-25T06:14:09.153Z,44.83
2019-02-25T06:15:09.136Z,44.02
2019-02-25T06:16:09.146Z,44.43
2019-02-25T06:17:09.133Z,44.83
2019-02-25T06:18:09.112Z,45.46
2019-02-25T06:19:09.096Z,44.55
2019-02-25T06:20:09.083Z,44.35
2019-02-25T06:21:09.077Z,44.45
2019-02-25T06:22:09.097Z,45.46
2019-02-25T06:23:09.055Z,45.36
2019-02-25T06:24:09.041Z,45.26
2019-02-25T06:25:09.048Z,44.95
2019-02-25T06:26:09.075Z,45.06
2019-02-25T06:27:09.030Z,44.85
2019-02-25T06:28:08.998Z,45.06
2019-02-25T06:29:08.997Z,44.85
2019-02-25T06:30:08.977Z,43.54
2019-02-25T06:31:08.976Z,41.53
2019-02-25T06:32:08.958Z,41.95
2019-02-25T06:33:08.959Z,40.84
2019-02-25T06:34:08.937Z,41.95
2019-02-25T06:35:08.929Z,41.45
2019-02-25T06:36:08.909Z,40.44
2019-02-25T06:37:08.904Z,40.96
2019-02-25T06:38:08.912Z,40.56
2019-02-25T06:39:08.897Z,41.56
2019-02-25T06:40:08.870Z,41.06
2019-02-25T06:41:08.858Z,41.16
2019-02-25T06:42:08.845Z,40.76
2019-02-25T06:43:08.855Z,41.28
2019-02-25T06:44:08.835Z,41.06
2019-02-25T06:45:08.823Z,40.98
2019-02-25T06:46:08.806Z,40.76
2019-02-25T06:47:08.811Z,40.96
2019-02-25T06:48:08.808Z,41.27
2019-02-25T06:49:08.775Z,40.78
2019-02-25T06:50:08.769Z,41.18
2019-02-25T06:51:08.759Z,40.96
2019-02-25T06:52:08.742Z,41.59
2019-02-25T06:53:08.757Z,41.47
2019-02-25T06:54:08.727Z,40.25
2019-02-25T06:55:08.723Z,40.56
2019-02-25T06:56:08.710Z,40.56
2019-02-25T06:57:08.704Z,40.66
2019-02-25T06:58:08.700Z,40.16
2019-02-25T06:59:08.685Z,39.94
2019-02-25T07:00:08.663Z,40.23
2019-02-25T07:01:08.676Z,40.14
2019-02-25T07:02:08.642Z,39.23
2019-02-25T07:03:08.650Z,38.93
2019-02-25T07:04:08.623Z,38.60
2019-02-25T07:05:08.610Z,38.91
2019-02-25T07:06:08.605Z,38.81
2019-02-25T07:07:08.589Z,38.91
2019-02-25T07:08:08.598Z,39.09
2019-02-25T07:09:08.570Z,38.99
2019-02-25T07:10:08.564Z,38.99
2019-02-25T07:11:09.367Z,39.19
2019-02-25T07:12:09.363Z,38.27
2019-02-25T07:13:09.862Z,38.47
2019-02-25T07:14:09.361Z,39.39
2019-02-25T07:15:09.363Z,38.77
2019-02-25T07:16:08.498Z,40.18
2019-02-25T07:17:08.488Z,40.28
2019-02-25T07:18:08.494Z,40.08
2019-02-25T07:19:08.470Z,41.27
2019-02-25T07:20:08.477Z,40.99
2019-02-25T07:21:08.441Z,40.66
2019-02-25T07:22:08.430Z,40.86
2019-02-25T07:23:08.448Z,41.79
2019-02-25T07:24:08.416Z,41.87
2019-02-25T07:25:08.394Z,41.29
2019-02-25T07:26:08.385Z,41.39
2019-02-25T07:27:08.377Z,41.09
2019-02-25T07:28:08.399Z,41.59
2019-02-25T07:29:08.355Z,41.79
2019-02-25T07:30:08.347Z,41.79
2019-02-25T07:31:08.329Z,42.10
2019-02-25T07:32:08.325Z,41.49
2019-02-25T07:33:08.330Z,41.69
2019-02-25T07:34:08.320Z,41.99
2019-02-25T07:35:08.306Z,42.30
2019-02-25T07:36:08.279Z,42.10
2019-02-25T07:37:08.283Z,42.32
2019-02-25T07:38:08.267Z,42.90
2019-02-25T07:39:08.263Z,42.30
2019-02-25T07:40:08.230Z,42.40
2019-02-25T07:41:08.220Z,42.70
2019-02-25T07:42:08.213Z,42.32
2019-02-25T07:43:08.200Z,41.99
2019-02-25T07:44:08.208Z,42.90
2019-02-25T07:45:08.180Z,42.92
2019-02-25T07:46:08.172Z,42.61
2019-02-25T07:47:08.166Z,42.11
2019-02-25T07:48:08.148Z,42.72
2019-02-25T07:49:08.150Z,42.01
2019-02-25T07:50:08.133Z,41.91
2019-02-25T07:51:08.115Z,42.21
2019-02-25T07:52:08.114Z,42.41
2019-02-25T07:53:08.095Z,42.01
2019-02-25T07:54:08.099Z,41.61
2019-02-25T07:55:08.075Z,41.91
2019-02-25T07:56:08.067Z,42.32
2019-02-25T07:57:08.059Z,42.41
2019-02-25T07:58:08.044Z,42.21
2019-02-25T07:59:08.046Z,41.91
2019-02-25T08:00:08.020Z,42.32
2019-02-25T08:01:08.008Z,41.91
2019-02-25T08:02:07.997Z,41.91
2019-02-25T08:03:07.993Z,42.72
2019-02-25T08:04:07.992Z,42.41
2019-02-25T08:05:07.969Z,42.72
2019-02-25T08:06:07.966Z,42.21
2019-02-25T08:07:07.945Z,42.32
2019-02-25T08:08:07.934Z,42.54
2019-02-25T08:09:07.941Z,42.44
2019-02-25T08:10:07.914Z,41.93
2019-02-25T08:11:07.902Z,42.33
2019-02-25T08:12:07.890Z,42.33
2019-02-25T08:13:07.891Z,42.13
2019-02-25T08:14:08.879Z,42.13
2019-02-25T08:15:09.127Z,42.44
2019-02-25T08:16:08.338Z,42.24
2019-02-25T08:17:08.324Z,42.13
2019-02-25T08:18:08.228Z,42.33
2019-02-25T08:19:07.816Z,42.44
2019-02-25T08:20:07.816Z,42.33
2019-02-25T08:21:07.799Z,42.33
2019-02-25T08:22:07.785Z,41.83
2019-02-25T08:23:07.774Z,42.03
2019-02-25T08:24:07.754Z,42.15
2019-02-25T08:25:07.757Z,42.15
2019-02-25T08:26:07.742Z,42.13
2019-02-25T08:27:07.726Z,42.15
2019-02-25T08:28:07.718Z,42.35
2019-02-25T08:29:07.704Z,42.15
2019-02-25T08:30:07.707Z,42.15
2019-02-25T08:31:09.216Z,42.76
2019-02-25T08:32:07.673Z,42.15
2019-02-25T08:33:07.672Z,42.35
2019-02-25T08:34:07.657Z,42.05
2019-02-25T08:35:07.665Z,42.46
2019-02-25T08:36:07.639Z,42.05
2019-02-25T08:37:07.622Z,41.87
2019-02-25T08:38:07.616Z,42.05
2019-02-25T08:39:07.608Z,41.95
2019-02-25T08:40:07.604Z,41.85
2019-02-25T08:41:07.582Z,41.75
2019-02-25T08:42:07.572Z,41.02
2019-02-25T08:43:07.559Z,40.52
2019-02-25T08:44:07.549Z,41.11
2019-02-25T08:45:07.560Z,41.31
2019-02-25T08:46:07.537Z,41.29
2019-02-25T08:47:07.522Z,40.36
2019-02-25T08:48:07.513Z,40.46
2019-02-25T08:49:07.533Z,39.54
2019-02-25T08:50:07.517Z,38.64
2019-02-25T08:51:07.476Z,38.51
2019-02-25T08:52:07.466Z,38.09
2019-02-25T08:53:07.459Z,37.99
2019-02-25T08:54:07.450Z,37.47
2019-02-25T08:55:07.447Z,37.77
2019-02-25T08:56:07.425Z,37.55
2019-02-25T08:57:07.418Z,37.55
2019-02-25T08:58:07.410Z,37.26
2019-02-25T08:59:07.398Z,36.65
2019-02-25T09:00:07.400Z,37.35
2019-02-25T09:01:07.375Z,36.05
2019-02-25T09:02:07.361Z,37.35
2019-02-25T09:03:07.354Z,37.13
2019-02-25T09:04:07.340Z,37.35
2019-02-25T09:05:07.342Z,36.35
2019-02-25T09:06:07.316Z,36.85
2019-02-25T09:07:07.304Z,36.85
2019-02-25T09:08:07.295Z,37.07
2019-02-25T09:09:07.284Z,37.17
2019-02-25T09:10:07.319Z,37.17
2019-02-25T09:11:13.947Z,38.38
2019-02-25T09:12:08.268Z,38.20
2019-02-25T09:13:07.243Z,37.79
2019-02-25T09:14:07.239Z,37.89
2019-02-25T09:15:07.233Z,37.99
2019-02-25T09:16:07.227Z,37.79
2019-02-25T09:17:07.203Z,37.79
2019-02-25T09:18:07.187Z,37.89
2019-02-25T09:19:07.179Z,37.79
2019-02-25T09:20:07.168Z,36.89
2019-02-25T09:21:08.165Z,38.20
2019-02-25T09:22:07.151Z,38.20
2019-02-25T09:23:07.147Z,37.39
2019-02-25T09:24:07.130Z,37.79
2019-02-25T09:25:07.117Z,38.40
2019-02-25T09:26:07.120Z,38.79
2019-02-25T09:27:07.105Z,38.01
2019-02-25T09:28:07.092Z,39.00
2019-02-25T09:29:07.073Z,39.12
2019-02-25T09:30:07.079Z,39.00
2019-02-25T09:31:07.075Z,45.13
2019-02-25T09:32:07.050Z,45.23
2019-02-25T09:33:07.034Z,40.70
2019-02-25T09:34:07.025Z,41.01
2019-02-25T09:35:07.021Z,40.81
2019-02-25T09:36:07.018Z,41.51
2019-02-25T09:37:06.990Z,41.82
2019-02-25T09:38:06.979Z,41.71
2019-02-25T09:39:06.966Z,41.61
2019-02-25T09:40:06.983Z,42.41
2019-02-25T09:41:06.961Z,42.72
2019-02-25T09:42:06.942Z,43.02
2019-02-25T09:43:06.931Z,42.82
2019-02-25T09:44:06.921Z,42.82
2019-02-25T09:45:06.909Z,42.32
2019-02-25T09:46:06.906Z,43.64
2019-02-25T09:47:06.888Z,43.62
2019-02-25T09:48:06.877Z,43.92
2019-02-25T09:49:06.865Z,44.12
2019-02-25T09:50:06.855Z,44.73
2019-02-25T09:51:06.861Z,45.35
2019-02-25T09:52:06.830Z,46.26
2019-02-25T09:53:07.414Z,46.26
2019-02-25T09:54:06.812Z,47.24
2019-02-25T09:55:06.800Z,47.56
2019-02-25T09:56:06.804Z,46.94
2019-02-25T09:57:06.785Z,47.06
2019-02-25T09:58:06.770Z,47.16
2019-02-25T09:59:06.754Z,46.86
2019-02-25T10:00:06.746Z,47.06
2019-02-25T10:01:06.749Z,47.16
2019-02-25T10:02:06.726Z,46.96
2019-02-25T10:03:06.717Z,46.96
2019-02-25T10:04:08.670Z,46.96
2019-02-25T10:05:06.693Z,46.06
2019-02-25T10:06:06.711Z,46.36
2019-02-25T10:07:06.678Z,45.75
2019-02-25T10:08:06.659Z,44.93
2019-02-25T10:09:06.648Z,45.35
2019-02-25T10:10:06.647Z,44.43
2019-02-25T10:11:06.646Z,44.63
2019-02-25T10:12:06.621Z,44.02
2019-02-25T10:13:06.609Z,43.72
2019-02-25T10:14:06.606Z,44.45
2019-02-25T10:15:06.590Z,44.45
2019-02-25T10:16:06.595Z,44.32
2019-02-25T10:17:06.574Z,43.12
2019-02-25T10:18:06.554Z,42.64
2019-02-25T10:19:06.549Z,42.01
2019-02-25T10:20:06.530Z,42.03
2019-02-25T10:21:06.538Z,42.61
2019-02-25T10:22:06.512Z,42.84
2019-02-25T10:23:06.509Z,45.75
2019-02-25T10:24:06.490Z,46.15
2019-02-25T10:25:06.481Z,45.33
2019-02-25T10:26:06.488Z,46.76
2019-02-25T10:27:06.464Z,46.66
2019-02-25T10:28:06.448Z,47.66
2019-02-25T10:29:06.434Z,47.77
2019-02-25T10:30:06.441Z,47.26
2019-02-25T10:31:06.433Z,47.86
2019-02-25T10:32:06.651Z,47.86
2019-02-25T10:33:06.391Z,47.86
2019-02-25T10:34:07.664Z,47.97
2019-02-25T10:35:06.374Z,47.16
2019-02-25T10:36:06.373Z,47.16
2019-02-25T10:37:06.354Z,46.56
2019-02-25T10:38:06.339Z,46.98
2019-02-25T10:39:06.331Z,47.28
2019-02-25T10:40:06.334Z,46.86
2019-02-25T10:41:06.324Z,46.86
2019-02-25T10:42:06.311Z,46.98
2019-02-25T10:43:06.290Z,46.98
2019-02-25T10:44:08.129Z,46.98
2019-02-25T10:45:07.249Z,47.39
2019-02-25T10:46:06.954Z,46.88
2019-02-25T10:47:06.265Z,46.98
2019-02-25T10:48:06.236Z,46.08
2019-02-25T10:49:11.551Z,46.08
2019-02-25T10:50:07.481Z,46.38
2019-02-25T10:51:07.118Z,45.37
2019-02-25T10:52:07.085Z,45.47
2019-02-25T10:53:06.189Z,45.78
2019-02-25T10:54:06.171Z,45.39
2019-02-25T10:55:06.170Z,46.28
2019-02-25T10:56:06.146Z,46.08
2019-02-25T10:57:06.153Z,45.50
2019-02-25T10:58:06.127Z,46.10
2019-02-25T10:59:08.085Z,46.18
2019-02-25T11:00:07.391Z,45.67
2019-02-25T11:01:08.487Z,45.37
2019-02-25T11:02:08.605Z,44.77
2019-02-25T11:03:06.076Z,44.97
2019-02-25T11:04:06.075Z,45.15
2019-02-25T11:05:06.050Z,43.84
2019-02-25T11:06:06.042Z,43.92
2019-02-25T11:07:07.853Z,43.92
2019-02-25T11:08:07.360Z,43.52
2019-02-25T11:09:07.020Z,42.60
2019-02-25T11:10:06.017Z,42.80
2019-02-25T11:11:05.989Z,42.18
2019-02-25T11:12:05.974Z,41.77
2019-02-25T11:13:05.978Z,40.95
2019-02-25T11:14:07.200Z,39.93
2019-02-25T11:15:07.473Z,39.73
2019-02-25T11:16:05.935Z,40.63
2019-02-25T11:17:05.925Z,40.31
2019-02-25T11:18:05.923Z,40.11
2019-02-25T11:19:05.907Z,40.21
2019-02-25T11:20:05.910Z,39.91
2019-02-25T11:21:06.177Z,40.31
2019-02-25T11:22:07.800Z,39.79
2019-02-25T11:23:05.872Z,40.01
2019-02-25T11:24:05.850Z,39.81
2019-02-25T11:25:05.874Z,39.39
2019-02-25T11:26:05.830Z,39.29
2019-02-25T11:27:07.303Z,39.49
2019-02-25T11:28:07.643Z,39.29
2019-02-25T11:29:07.645Z,39.09
2019-02-25T11:30:05.786Z,39.39
2019-02-25T11:31:05.778Z,39.59
2019-02-25T11:32:05.769Z,39.29
2019-02-25T11:33:05.771Z,39.69
2019-02-25T11:34:08.007Z,39.49
2019-02-25T11:35:06.385Z,38.67
2019-02-25T11:36:05.737Z,39.29
2019-02-25T11:37:05.713Z,38.89
2019-02-25T11:38:05.712Z,39.39
2019-02-25T11:39:06.959Z,39.49
2019-02-25T11:40:05.681Z,39.39
2019-02-25T11:41:07.150Z,39.49
2019-02-25T11:42:07.839Z,39.99
2019-02-25T11:43:05.682Z,39.99
2019-02-25T11:44:05.637Z,39.99
2019-02-25T11:45:05.630Z,39.18
2019-02-25T11:46:05.615Z,40.19
2019-02-25T11:47:05.604Z,40.11
2019-02-25T11:48:05.620Z,40.01
2019-02-25T11:49:05.587Z,39.79
2019-02-25T11:50:05.575Z,39.91
2019-02-25T11:51:05.562Z,39.81
2019-02-25T11:52:05.557Z,39.69
2019-02-25T11:53:05.559Z,39.61
2019-02-25T11:54:05.541Z,40.41
2019-02-25T11:55:05.518Z,40.81
2019-02-25T11:56:05.516Z,40.81
2019-02-25T11:57:05.501Z,41.13
2019-02-25T11:58:05.515Z,40.91
2019-02-25T11:59:05.480Z,41.01
2019-02-25T12:00:05.468Z,41.03
2019-02-25T12:01:05.464Z,41.31
2019-02-25T12:02:05.446Z,40.01
2019-02-25T12:03:05.472Z,39.91
2019-02-25T12:04:05.430Z,39.71
2019-02-25T12:05:05.418Z,39.40
2019-02-25T12:06:05.407Z,39.81
2019-02-25T12:07:05.400Z,39.61
2019-02-25T12:08:05.417Z,40.01
2019-02-25T12:09:05.383Z,39.40
2019-02-25T12:10:05.365Z,39.81
2019-02-25T12:11:05.354Z,39.21
2019-02-25T12:12:05.342Z,38.29
2019-02-25T12:13:05.365Z,38.31
2019-02-25T12:14:05.315Z,38.89
2019-02-25T12:15:05.312Z,39.11
2019-02-25T12:16:05.297Z,39.21
2019-02-25T12:17:05.290Z,38.40
2019-02-25T12:18:05.282Z,39.40
2019-02-25T12:19:05.285Z,38.31
2019-02-25T12:20:05.296Z,38.90
2019-02-25T12:21:05.243Z,38.40
2019-02-25T12:22:05.233Z,38.53
2019-02-25T12:23:05.227Z,39.03
2019-02-25T12:24:05.234Z,39.12
2019-02-25T12:25:05.212Z,39.32
2019-02-25T12:26:05.193Z,40.13
2019-02-25T12:27:05.182Z,39.62
2019-02-25T12:28:05.178Z,39.54
2019-02-25T12:29:10.770Z,40.05
2019-02-25T12:30:06.151Z,41.25
2019-02-25T12:31:05.137Z,40.75
2019-02-25T12:32:05.135Z,40.85
2019-02-25T12:33:05.135Z,40.85
2019-02-25T12:34:05.127Z,40.75
2019-02-25T12:35:05.095Z,41.85
2019-02-25T12:36:05.094Z,41.75
2019-02-25T12:37:05.073Z,41.27
2019-02-25T12:38:05.074Z,41.17
2019-02-25T12:39:05.070Z,41.57
2019-02-25T12:40:05.047Z,41.87
2019-02-25T12:41:05.036Z,41.97
2019-02-25T12:42:05.046Z,41.77
2019-02-25T12:43:05.013Z,41.07
2019-02-25T12:44:05.020Z,41.97
2019-02-25T12:45:04.994Z,41.59
2019-02-25T12:46:04.985Z,42.19
2019-02-25T12:47:04.974Z,41.79
2019-02-25T12:48:04.962Z,41.99
2019-02-25T12:49:04.972Z,41.89
2019-02-25T12:50:04.946Z,41.59
2019-02-25T12:51:04.935Z,42.10
2019-02-25T12:52:04.922Z,41.99